createdAt,value
2016-01-26T00:00:04.185Z,18.07
2016-01-26T00:01:04.251Z,18.03
2016-01-26T00:02:04.300Z,18.07
2016-01-26T00:03:04.414Z,18.04
2016-01-26T00:04:04.245Z,18.01
2016-01-26T00:05:04.454Z,18.05
2016-01-26T00:06:04.552Z,18.07
2016-01-26T00:07:04.570Z,18.1
2016-01-26T00:08:04.620Z,18.16
2016-01-26T00:09:04.688Z,18.05
2016-01-26T00:10:04.723Z,17.97
2016-01-26T00:11:04.788Z,18.11
2016-01-26T00:12:04.853Z,18.01
2016-01-26T00:13:04.918Z,18.05
2016-01-26T00:14:04.952Z,18.13
2016-01-26T00:15:05.033Z,18.1
2016-01-26T00:16:05.067Z,18.1
2016-01-26T00:17:05.117Z,18.08
2016-01-26T00:18:05.183Z,18.04
2016-01-26T00:19:05.279Z,18.04
2016-01-26T00:20:05.298Z,18.08
2016-01-26T00:21:05.336Z,18.07
2016-01-26T00:22:05.402Z,18.04
2016-01-26T00:23:05.482Z,18.15
2016-01-26T00:24:05.500Z,18.04
2016-01-26T00:25:05.549Z,18.15
2016-01-26T00:26:05.631Z,18.04
2016-01-26T00:27:05.681Z,18.1
2016-01-26T00:28:05.731Z,18.13
2016-01-26T00:29:05.784Z,18.08
2016-01-26T00:30:05.849Z,18.07
2016-01-26T00:31:05.914Z,18.07
2016-01-26T00:32:05.979Z,18.01
2016-01-26T00:33:06.047Z,18.15
2016-01-26T00:34:06.097Z,18.08
2016-01-26T00:35:06.130Z,18.08
2016-01-26T00:36:06.165Z,18.11
2016-01-26T00:37:06.245Z,18.07
2016-01-26T00:38:06.313Z,18.1
2016-01-26T00:39:06.362Z,18.07
2016-01-26T00:40:06.411Z,18.1
2016-01-26T00:41:06.461Z,18.07
2016-01-26T00:42:06.511Z,18.1
2016-01-26T00:43:06.561Z,18.13
2016-01-26T00:44:06.642Z,18.08
2016-01-26T00:45:06.662Z,18.07
2016-01-26T00:46:06.727Z,18.1
2016-01-26T00:47:06.808Z,18.07
2016-01-26T00:48:06.842Z,18.08
2016-01-26T00:49:06.876Z,18.08
2016-01-26T00:50:06.959Z,18.08
2016-01-26T00:51:07.039Z,18.11
2016-01-26T00:52:07.059Z,18.07
2016-01-26T00:53:07.124Z,18.13
2016-01-26T00:54:07.175Z,18.04
2016-01-26T00:55:07.103Z,18.04
2016-01-26T00:56:07.293Z,18.05
2016-01-26T00:57:07.327Z,18.11
2016-01-26T00:58:07.411Z,18.16
2016-01-26T00:59:07.506Z,18.15
2016-01-26T01:00:07.494Z,18.11
2016-01-26T01:01:07.560Z,18.08
2016-01-26T01:02:07.625Z,18.16
2016-01-26T01:03:07.659Z,18.13
2016-01-26T01:04:07.739Z,18.11
2016-01-26T01:05:07.789Z,18.1
2016-01-26T01:06:07.887Z,18.1
2016-01-26T01:07:07.890Z,18.15
2016-01-26T01:08:07.942Z,18.11
2016-01-26T01:09:08.023Z,18.13
2016-01-26T01:10:08.107Z,18.13
2016-01-26T01:11:08.110Z,18.08
2016-01-26T01:12:08.158Z,18.1
2016-01-26T01:13:08.242Z,18.15
2016-01-26T01:14:08.291Z,18.08
2016-01-26T01:15:08.340Z,18.08
2016-01-26T01:16:08.408Z,18.08
2016-01-26T01:17:08.457Z,18.13
2016-01-26T01:18:08.491Z,18.1
2016-01-26T01:19:08.556Z,18.07
2016-01-26T01:20:08.621Z,18.07
2016-01-26T01:21:08.687Z,18.08
2016-01-26T01:22:08.705Z,18.07
2016-01-26T01:23:08.786Z,18.07
2016-01-26T01:24:08.836Z,18.13
2016-01-26T01:25:08.872Z,18.11
2016-01-26T01:26:09.007Z,18.05
2016-01-26T01:27:09.025Z,18.16
2016-01-26T01:28:09.044Z,18.1
2016-01-26T01:29:09.093Z,18.15
2016-01-26T01:30:09.174Z,18.22
2016-01-26T01:31:09.224Z,18.13
2016-01-26T01:32:09.273Z,18.1
2016-01-26T01:33:09.308Z,18.11
2016-01-26T01:34:09.420Z,18.11
2016-01-26T01:35:09.475Z,18.2
2016-01-26T01:36:09.495Z,18.15
2016-01-26T01:37:09.528Z,18.13
2016-01-26T01:38:09.625Z,18.05
2016-01-26T01:39:09.659Z,18.1
2016-01-26T01:40:09.711Z,18.1
2016-01-26T01:41:09.777Z,18.1
2016-01-26T01:42:09.843Z,18.19
2016-01-26T01:43:09.876Z,18.18
2016-01-26T01:44:09.942Z,18.05
2016-01-26T01:45:09.978Z,18.18
2016-01-26T01:46:10.058Z,18.13
2016-01-26T01:47:10.108Z,18.1
2016-01-26T01:48:09.986Z,18.18
2016-01-26T01:49:10.222Z,18.16
2016-01-26T01:50:10.288Z,18.11
2016-01-26T01:51:10.338Z,18.05
2016-01-26T01:52:10.388Z,18.16
2016-01-26T01:53:10.438Z,18.05
2016-01-26T01:54:10.488Z,18.16
2016-01-26T01:55:10.553Z,18.11
2016-01-26T01:56:10.447Z,18.2
2016-01-26T01:57:10.635Z,18.15
2016-01-26T01:58:10.732Z,18.2
2016-01-26T01:59:10.749Z,18.19
2016-01-26T02:00:10.817Z,18.16
2016-01-26T02:01:10.929Z,18.16
2016-01-26T02:02:10.931Z,18.07
2016-01-26T02:03:10.981Z,18.11
2016-01-26T02:04:11.046Z,18.18
2016-01-26T02:05:11.098Z,18.15
2016-01-26T02:06:11.147Z,18.11
2016-01-26T02:07:11.228Z,18.15
2016-01-26T02:08:11.263Z,18.1
2016-01-26T02:09:11.328Z,18.15
2016-01-26T02:10:11.378Z,18.15
2016-01-26T02:11:11.428Z,18.15
2016-01-26T02:12:11.508Z,18.15
2016-01-26T02:13:11.527Z,18.18
2016-01-26T02:14:11.609Z,18.18
2016-01-26T02:15:11.659Z,18.15
2016-01-26T02:16:11.739Z,18.11
2016-01-26T02:17:11.776Z,18.19
2016-01-26T02:18:11.825Z,18.13
2016-01-26T02:19:11.889Z,18.18
2016-01-26T02:20:11.926Z,18.1
2016-01-26T02:21:11.991Z,18.15
2016-01-26T02:22:12.072Z,18.08
2016-01-26T02:23:12.137Z,18.15
2016-01-26T02:24:12.155Z,18.11
2016-01-26T02:25:12.237Z,18.1
2016-01-26T02:26:12.255Z,18.18
2016-01-26T02:27:12.370Z,18.19
2016-01-26T02:28:12.389Z,18.07
2016-01-26T02:29:12.440Z,18.2
2016-01-26T02:30:12.489Z,18.19
2016-01-26T02:31:12.570Z,18.08
2016-01-26T02:32:12.605Z,18.25
2016-01-26T02:33:12.655Z,18.2
2016-01-26T02:34:12.751Z,18.19
2016-01-26T02:35:12.759Z,18.26
2016-01-26T02:36:12.824Z,18.22
2016-01-26T02:37:12.875Z,18.2
2016-01-26T02:38:12.925Z,18.25
2016-01-26T02:39:12.990Z,18.25
2016-01-26T02:40:13.056Z,18.22
2016-01-26T02:41:13.106Z,18.2
2016-01-26T02:42:13.155Z,18.2
2016-01-26T02:43:13.204Z,18.22
2016-01-26T02:44:13.255Z,18.2
2016-01-26T02:45:13.321Z,18.25
2016-01-26T02:46:13.386Z,18.22
2016-01-26T02:47:13.435Z,18.23
2016-01-26T02:48:13.485Z,18.25
2016-01-26T02:49:13.537Z,18.23
2016-01-26T02:50:13.618Z,18.22
2016-01-26T02:51:13.667Z,18.26
2016-01-26T02:52:13.703Z,18.23
2016-01-26T02:53:13.784Z,18.23
2016-01-26T02:54:13.849Z,18.19
2016-01-26T02:55:13.867Z,18.22
2016-01-26T02:56:13.935Z,18.25
2016-01-26T02:57:14.003Z,18.23
2016-01-26T02:58:14.052Z,18.2
2016-01-26T02:59:14.090Z,18.2
2016-01-26T03:00:14.155Z,18.2
2016-01-26T03:01:14.205Z,18.25
2016-01-26T03:02:14.286Z,18.19
2016-01-26T03:03:13.585Z,18.22
2016-01-26T03:04:14.386Z,18.33
2016-01-26T03:05:14.467Z,18.31
2016-01-26T03:06:14.486Z,18.26
2016-01-26T03:07:14.535Z,18.23
2016-01-26T03:08:14.617Z,18.29
2016-01-26T03:09:14.654Z,18.29
2016-01-26T03:10:14.720Z,18.23
2016-01-26T03:11:14.784Z,18.29
2016-01-26T03:12:14.817Z,18.23
2016-01-26T03:13:14.871Z,18.26
2016-01-26T03:14:14.937Z,18.29
2016-01-26T03:15:15.002Z,18.23
2016-01-26T03:16:15.053Z,18.22
2016-01-26T03:17:15.103Z,18.29
2016-01-26T03:18:15.153Z,18.25
2016-01-26T03:19:15.221Z,18.22
2016-01-26T03:20:15.271Z,18.29
2016-01-26T03:21:15.320Z,18.18
2016-01-26T03:22:15.386Z,18.26
2016-01-26T03:23:15.436Z,18.28
2016-01-26T03:24:15.487Z,18.25
2016-01-26T03:25:15.552Z,18.26
2016-01-26T03:26:15.619Z,18.29
2016-01-26T03:27:15.653Z,18.26
2016-01-26T03:28:15.547Z,18.28
2016-01-26T03:29:15.754Z,18.35
2016-01-26T03:30:15.850Z,18.28
2016-01-26T03:31:15.932Z,18.26
2016-01-26T03:32:15.982Z,18.25
2016-01-26T03:33:16.016Z,18.19
2016-01-26T03:34:16.050Z,18.19
2016-01-26T03:35:16.099Z,18.26
2016-01-26T03:36:16.167Z,18.26
2016-01-26T03:37:16.217Z,18.26
2016-01-26T03:38:16.281Z,18.19
2016-01-26T03:39:16.331Z,18.25
2016-01-26T03:40:16.399Z,18.28
2016-01-26T03:41:16.449Z,18.28
2016-01-26T03:42:16.498Z,18.22
2016-01-26T03:43:16.564Z,18.26
2016-01-26T03:44:16.613Z,18.19
2016-01-26T03:45:16.663Z,18.26
2016-01-26T03:46:16.776Z,18.2
2016-01-26T03:47:16.794Z,18.22
2016-01-26T03:48:16.831Z,18.2
2016-01-26T03:49:16.912Z,18.26
2016-01-26T03:50:16.977Z,18.2
2016-01-26T03:51:16.997Z,18.26
2016-01-26T03:52:17.077Z,18.22
2016-01-26T03:53:17.112Z,18.22
2016-01-26T03:54:17.192Z,18.31
2016-01-26T03:55:17.226Z,18.29
2016-01-26T03:56:17.262Z,18.28
2016-01-26T03:57:17.344Z,18.33
2016-01-26T03:58:17.440Z,18.31
2016-01-26T03:59:17.428Z,18.26
2016-01-26T04:00:17.511Z,18.28
2016-01-26T04:01:17.561Z,18.28
2016-01-26T04:02:17.611Z,18.28
2016-01-26T04:03:17.664Z,18.28
2016-01-26T04:04:17.745Z,18.26
2016-01-26T04:05:17.794Z,18.26
2016-01-26T04:06:17.829Z,18.25
2016-01-26T04:07:17.893Z,18.25
2016-01-26T04:08:17.992Z,18.23
2016-01-26T04:09:18.025Z,18.25
2016-01-26T04:10:18.075Z,18.34
2016-01-26T04:11:18.108Z,18.26
2016-01-26T04:12:18.175Z,18.26
2016-01-26T04:13:18.225Z,18.28
2016-01-26T04:14:18.134Z,18.25
2016-01-26T04:15:18.324Z,18.28
2016-01-26T04:16:18.421Z,18.28
2016-01-26T04:17:18.458Z,18.29
2016-01-26T04:18:18.508Z,18.23
2016-01-26T04:19:18.574Z,18.28
2016-01-26T04:20:18.592Z,18.26
2016-01-26T04:21:18.673Z,18.26
2016-01-26T04:22:18.739Z,18.22
2016-01-26T04:23:18.772Z,18.29
2016-01-26T04:24:18.839Z,18.23
2016-01-26T04:25:18.982Z,18.28
2016-01-26T04:26:18.954Z,18.26
2016-01-26T04:27:18.997Z,18.28
2016-01-26T04:28:19.078Z,18.31
2016-01-26T04:29:19.099Z,18.26
2016-01-26T04:30:19.148Z,18.33
2016-01-26T04:31:19.213Z,18.31
2016-01-26T04:32:19.280Z,18.31
2016-01-26T04:33:19.361Z,18.31
2016-01-26T04:34:19.378Z,18.23
2016-01-26T04:35:19.428Z,18.26
2016-01-26T04:36:19.509Z,18.26
2016-01-26T04:37:19.560Z,18.29
2016-01-26T04:38:19.594Z,18.26
2016-01-26T04:39:19.661Z,18.29
2016-01-26T04:40:19.725Z,18.26
2016-01-26T04:41:19.844Z,18.19
2016-01-26T04:42:19.878Z,18.28
2016-01-26T04:43:19.896Z,18.22
2016-01-26T04:44:19.962Z,18.22
2016-01-26T04:45:19.996Z,18.23
2016-01-26T04:46:20.045Z,18.29
2016-01-26T04:47:20.159Z,18.26
2016-01-26T04:48:20.162Z,18.25
2016-01-26T04:49:20.212Z,18.2
2016-01-26T04:50:20.326Z,18.22
2016-01-26T04:51:20.343Z,18.22
2016-01-26T04:52:19.628Z,18.25
2016-01-26T04:53:20.443Z,18.19
2016-01-26T04:54:20.509Z,18.23
2016-01-26T04:55:20.543Z,18.16
2016-01-26T04:56:20.613Z,18.2
2016-01-26T04:57:20.663Z,18.19
2016-01-26T04:58:20.728Z,18.26
2016-01-26T04:59:20.841Z,18.2
2016-01-26T05:00:20.828Z,18.28
2016-01-26T05:01:20.910Z,18.26
2016-01-26T05:02:20.945Z,18.26
2016-01-26T05:03:20.993Z,18.29
2016-01-26T05:04:21.061Z,18.26
2016-01-26T05:05:21.158Z,18.31
2016-01-26T05:06:21.144Z,18.28
2016-01-26T05:07:20.460Z,18.33
2016-01-26T05:08:21.293Z,18.25
2016-01-26T05:09:21.328Z,18.28
2016-01-26T05:10:21.392Z,18.22
2016-01-26T05:11:21.442Z,18.25
2016-01-26T05:12:21.350Z,18.28
2016-01-26T05:13:21.558Z,18.26
2016-01-26T05:14:21.592Z,18.26
2016-01-26T05:15:21.656Z,18.29
2016-01-26T05:16:21.739Z,18.26
2016-01-26T05:17:21.773Z,18.33
2016-01-26T05:18:21.854Z,18.34
2016-01-26T05:19:21.918Z,18.25
2016-01-26T05:20:21.940Z,18.26
2016-01-26T05:21:21.990Z,18.26
2016-01-26T05:22:22.054Z,18.25
2016-01-26T05:23:22.104Z,18.28
2016-01-26T05:24:22.201Z,18.26
2016-01-26T05:25:22.237Z,18.26
2016-01-26T05:26:22.279Z,18.29
2016-01-26T05:27:22.328Z,18.28
2016-01-26T05:28:22.380Z,18.29
2016-01-26T05:29:22.429Z,18.26
2016-01-26T05:30:22.510Z,18.29
2016-01-26T05:31:22.543Z,18.26
2016-01-26T05:32:22.610Z,18.33
2016-01-26T05:33:22.691Z,18.23
2016-01-26T05:34:22.709Z,18.2
2016-01-26T05:35:22.759Z,18.25
2016-01-26T05:36:22.824Z,18.26
2016-01-26T05:37:22.890Z,18.23
2016-01-26T05:38:22.939Z,18.28
2016-01-26T05:39:22.834Z,18.25
2016-01-26T05:40:23.041Z,18.22
2016-01-26T05:41:23.105Z,18.2
2016-01-26T05:42:23.155Z,18.23
2016-01-26T05:43:23.204Z,18.23
2016-01-26T05:44:23.286Z,18.23
2016-01-26T05:45:23.335Z,18.23
2016-01-26T05:46:23.354Z,18.2
2016-01-26T05:47:23.497Z,18.22
2016-01-26T05:48:23.499Z,18.23
2016-01-26T05:49:23.534Z,18.2
2016-01-26T05:50:23.599Z,18.29
2016-01-26T05:51:23.664Z,18.19
2016-01-26T05:52:23.715Z,18.28
2016-01-26T05:53:23.765Z,18.25
2016-01-26T05:54:24.183Z,18.26
2016-01-26T05:55:23.888Z,18.19
2016-01-26T05:56:23.923Z,18.18
2016-01-26T05:57:24.004Z,18.25
2016-01-26T05:58:24.116Z,18.25
2016-01-26T05:59:24.135Z,18.18
2016-01-26T06:00:24.152Z,18.2
2016-01-26T06:01:24.203Z,18.25
2016-01-26T06:02:24.269Z,18.22
2016-01-26T06:03:24.334Z,18.26
2016-01-26T06:04:24.370Z,18.25
2016-01-26T06:05:24.467Z,18.26
2016-01-26T06:06:24.501Z,18.2
2016-01-26T06:07:24.535Z,18.19
2016-01-26T06:08:24.616Z,18.2
2016-01-26T06:09:24.682Z,18.26
2016-01-26T06:10:24.701Z,18.22
2016-01-26T06:11:24.765Z,18.13
2016-01-26T06:12:24.847Z,18.25
2016-01-26T06:13:24.866Z,18.15
2016-01-26T06:14:24.946Z,18.08
2016-01-26T06:15:24.980Z,18.2
2016-01-26T06:16:25.047Z,18.1
2016-01-26T06:17:25.112Z,18.22
2016-01-26T06:18:25.146Z,18.11
2016-01-26T06:19:25.210Z,18.23
2016-01-26T06:20:25.292Z,18.19
2016-01-26T06:21:25.326Z,18.1
2016-01-26T06:22:25.361Z,18.22
2016-01-26T06:23:25.442Z,18.28
2016-01-26T06:24:25.506Z,18.25
2016-01-26T06:25:25.586Z,18.22
2016-01-26T06:26:25.604Z,18.22
2016-01-26T06:27:25.701Z,18.07
2016-01-26T06:28:25.736Z,18.22
2016-01-26T06:29:25.755Z,18.25
2016-01-26T06:30:25.819Z,18.28
2016-01-26T06:31:25.885Z,18.19
2016-01-26T06:32:25.935Z,18.13
2016-01-26T06:33:25.972Z,18.22
2016-01-26T06:34:26.100Z,18.18
2016-01-26T06:35:26.150Z,18.22
2016-01-26T06:36:26.154Z,18.2
2016-01-26T06:37:26.218Z,18.22
2016-01-26T06:38:26.283Z,18.23
2016-01-26T06:39:26.318Z,18.25
2016-01-26T06:40:26.386Z,18.19
2016-01-26T06:41:26.436Z,18.22
2016-01-26T06:42:26.501Z,18.25
2016-01-26T06:43:26.551Z,18.19
2016-01-26T06:44:26.632Z,18.13
2016-01-26T06:45:26.728Z,18.16
2016-01-26T06:46:26.731Z,18.07
2016-01-26T06:47:26.781Z,18.23
2016-01-26T06:48:26.816Z,18.16
2016-01-26T06:49:26.881Z,18.13
2016-01-26T06:50:26.932Z,18.22
2016-01-26T06:51:26.996Z,18.25
2016-01-26T06:52:27.047Z,18.15
2016-01-26T06:53:27.100Z,18.13
2016-01-26T06:54:27.178Z,18.1
2016-01-26T06:55:27.206Z,18.16
2016-01-26T06:56:27.348Z,18.15
2016-01-26T06:57:27.367Z,18.1
2016-01-26T06:58:27.370Z,18.13
2016-01-26T06:59:27.434Z,18.22
2016-01-26T07:00:27.501Z,18.23
2016-01-26T07:01:27.551Z,18.19
2016-01-26T07:02:27.601Z,18.22
2016-01-26T07:03:27.743Z,18.08
2016-01-26T07:04:27.715Z,18.22
2016-01-26T07:05:27.813Z,18.25
2016-01-26T07:06:27.862Z,18.26
2016-01-26T07:07:27.880Z,18.23
2016-01-26T07:08:27.946Z,18.2
2016-01-26T07:09:27.980Z,18.18
2016-01-26T07:10:28.045Z,18.26
2016-01-26T07:11:28.110Z,18.22
2016-01-26T07:12:28.179Z,18.25
2016-01-26T07:13:28.213Z,18.19
2016-01-26T07:14:28.277Z,18.22
2016-01-26T07:15:28.358Z,18.16
2016-01-26T07:16:28.377Z,18.2
2016-01-26T07:17:28.443Z,18.19
2016-01-26T07:18:28.523Z,18.15
2016-01-26T07:19:28.589Z,18.2
2016-01-26T07:20:28.608Z,18.2
2016-01-26T07:21:28.658Z,18.19
2016-01-26T07:22:28.723Z,18.26
2016-01-26T07:23:28.773Z,18.28
2016-01-26T07:24:28.824Z,18.33
2016-01-26T07:25:28.875Z,18.29
2016-01-26T07:26:28.941Z,18.26
2016-01-26T07:27:28.991Z,18.28
2016-01-26T07:28:29.056Z,18.31
2016-01-26T07:29:29.107Z,18.25
2016-01-26T07:30:29.140Z,18.25
2016-01-26T07:31:29.206Z,18.26
2016-01-26T07:32:29.271Z,18.28
2016-01-26T07:33:29.307Z,18.29
2016-01-26T07:34:29.777Z,18.2
2016-01-26T07:35:29.452Z,18.28
2016-01-26T07:36:29.588Z,18.19
2016-01-26T07:37:29.559Z,18.29
2016-01-26T07:38:29.656Z,18.29
2016-01-26T07:39:29.674Z,18.23
2016-01-26T07:40:29.693Z,18.2
2016-01-26T07:41:29.773Z,18.26
2016-01-26T07:42:29.838Z,18.25
2016-01-26T07:43:29.873Z,18.25
2016-01-26T07:44:29.922Z,18.19
2016-01-26T07:45:30.020Z,18.23
2016-01-26T07:46:30.054Z,18.25
2016-01-26T07:47:30.119Z,18.23
2016-01-26T07:48:30.153Z,18.25
2016-01-26T07:49:30.219Z,18.11
2016-01-26T07:50:30.270Z,18.23
2016-01-26T07:51:30.318Z,18.26
2016-01-26T07:52:30.395Z,18.25
2016-01-26T07:53:30.421Z,18.25
2016-01-26T07:54:30.455Z,18.19
2016-01-26T07:55:30.528Z,18.19
2016-01-26T07:56:30.583Z,18.19
2016-01-26T07:57:30.629Z,18.23
2016-01-26T07:58:30.660Z,18.19
2016-01-26T07:59:30.706Z,18.25
2016-01-26T08:00:30.768Z,18.19
2016-01-26T08:01:30.830Z,18.26
2016-01-26T08:02:30.910Z,18.19
2016-01-26T08:03:30.630Z,18.23
2016-01-26T08:04:31.006Z,18.22
2016-01-26T08:05:31.026Z,18.25
2016-01-26T08:06:31.089Z,18.2
2016-01-26T08:07:31.154Z,18.28
2016-01-26T08:08:31.203Z,18.26
2016-01-26T08:09:31.269Z,18.2
2016-01-26T08:10:31.318Z,18.33
2016-01-26T08:11:31.351Z,18.26
2016-01-26T08:12:31.417Z,18.26
2016-01-26T08:13:31.481Z,18.19
2016-01-26T08:14:31.516Z,18.2
2016-01-26T08:15:31.580Z,18.31
2016-01-26T08:16:31.630Z,18.19
2016-01-26T08:17:31.681Z,18.29
2016-01-26T08:18:31.762Z,18.2
2016-01-26T08:19:31.859Z,18.23
2016-01-26T08:20:31.845Z,18.28
2016-01-26T08:21:31.927Z,18.28
2016-01-26T08:22:31.976Z,18.29
2016-01-26T08:23:32.011Z,18.28
2016-01-26T08:24:32.076Z,18.2
2016-01-26T08:25:32.148Z,18.29
2016-01-26T08:26:32.291Z,18.28
2016-01-26T08:27:32.247Z,18.16
2016-01-26T08:28:32.312Z,18.1
2016-01-26T08:29:32.363Z,18.03
2016-01-26T08:30:32.397Z,17.95
2016-01-26T08:31:32.478Z,17.86
2016-01-26T08:32:32.652Z,17.78
2016-01-26T08:33:32.580Z,17.74
2016-01-26T08:34:32.647Z,17.64
2016-01-26T08:35:32.696Z,17.57
2016-01-26T08:36:32.761Z,17.51
2016-01-26T08:37:32.795Z,17.41
2016-01-26T08:38:32.865Z,17.39
2016-01-26T08:39:32.930Z,17.31
2016-01-26T08:40:32.963Z,17.3
2016-01-26T08:41:33.016Z,17.24
2016-01-26T08:42:33.082Z,17.19
2016-01-26T08:43:33.146Z,17.11
2016-01-26T08:44:33.196Z,16.99
2016-01-26T08:45:33.245Z,17.04
2016-01-26T08:46:33.312Z,17.02
2016-01-26T08:47:33.362Z,16.81
2016-01-26T08:48:33.411Z,16.87
2016-01-26T08:49:33.555Z,16.79
2016-01-26T08:50:33.592Z,16.78
2016-01-26T08:51:33.579Z,16.79
2016-01-26T08:52:33.613Z,16.76
2016-01-26T08:53:33.704Z,16.71
2016-01-26T08:54:33.753Z,16.69
2016-01-26T08:55:33.804Z,16.75
2016-01-26T08:56:33.900Z,16.71
2016-01-26T08:57:33.919Z,16.68
2016-01-26T08:58:33.969Z,16.68
2016-01-26T08:59:34.006Z,16.71
2016-01-26T09:00:34.071Z,16.66
2016-01-26T09:01:34.136Z,16.71
2016-01-26T09:02:34.202Z,16.64
2016-01-26T09:03:34.221Z,16.6
2016-01-26T09:04:34.301Z,16.61
2016-01-26T09:05:34.368Z,16.54
2016-01-26T09:06:34.402Z,16.58
2016-01-26T09:07:34.405Z,16.58
2016-01-26T09:08:34.595Z,16.56
2016-01-26T09:09:34.549Z,16.57
2016-01-26T09:10:34.599Z,16.56
2016-01-26T09:11:34.680Z,16.58
2016-01-26T09:12:34.730Z,16.47
2016-01-26T09:13:34.765Z,16.58
2016-01-26T09:14:34.835Z,16.56
2016-01-26T09:15:34.993Z,16.61
2016-01-26T09:16:34.949Z,16.57
2016-01-26T09:17:35.014Z,16.61
2016-01-26T09:18:34.923Z,16.69
2016-01-26T09:19:35.108Z,16.65
2016-01-26T09:20:35.157Z,16.72
2016-01-26T09:21:35.238Z,16.72
2016-01-26T09:22:35.269Z,16.71
2016-01-26T09:23:35.335Z,16.68
2016-01-26T09:24:35.384Z,16.57
2016-01-26T09:25:35.434Z,16.61
2016-01-26T09:26:35.515Z,16.54
2016-01-26T09:27:35.534Z,16.64
2016-01-26T09:28:35.599Z,16.54
2016-01-26T09:29:35.654Z,16.47
2016-01-26T09:30:35.719Z,16.43
2016-01-26T09:31:35.754Z,16.56
2016-01-26T09:32:35.834Z,16.64
2016-01-26T09:33:35.867Z,16.6
2016-01-26T09:34:35.933Z,16.6
2016-01-26T09:35:35.999Z,16.64
2016-01-26T09:36:36.079Z,16.5
2016-01-26T09:37:36.067Z,16.61
2016-01-26T09:38:36.145Z,16.58
2016-01-26T09:39:36.194Z,16.56
2016-01-26T09:40:36.275Z,16.6
2016-01-26T09:41:36.292Z,16.75
2016-01-26T09:42:36.341Z,16.68
2016-01-26T09:43:36.424Z,16.69
2016-01-26T09:44:36.489Z,16.75
2016-01-26T09:45:36.508Z,16.83
2016-01-26T09:46:36.572Z,16.9
2016-01-26T09:47:36.638Z,16.94
2016-01-26T09:48:36.675Z,17.02
2016-01-26T09:49:36.740Z,16.97
2016-01-26T09:50:36.790Z,17.09
2016-01-26T09:51:36.887Z,17.11
2016-01-26T09:52:36.890Z,17.16
2016-01-26T09:53:36.954Z,17.2
2016-01-26T09:54:37.013Z,17.23
2016-01-26T09:55:37.093Z,17.29
2016-01-26T09:56:37.113Z,17.24
2016-01-26T09:57:37.177Z,17.24
2016-01-26T09:58:37.071Z,17.29
2016-01-26T09:59:37.277Z,17.31
2016-01-26T10:00:37.327Z,17.39
2016-01-26T10:01:37.392Z,17.36
2016-01-26T10:02:37.427Z,17.42
2016-01-26T10:03:37.508Z,17.36
2016-01-26T10:04:37.558Z,17.45
2016-01-26T10:05:37.623Z,17.39
2016-01-26T10:06:37.672Z,17.41
2016-01-26T10:07:37.708Z,17.46
2016-01-26T10:08:37.773Z,17.44
2016-01-26T10:09:37.837Z,17.41
2016-01-26T10:10:37.872Z,17.46
2016-01-26T10:11:37.937Z,17.38
2016-01-26T10:12:38.003Z,17.39
2016-01-26T10:13:38.037Z,17.44
2016-01-26T10:14:38.088Z,17.44
2016-01-26T10:15:38.168Z,17.39
2016-01-26T10:16:38.202Z,17.45
2016-01-26T10:17:38.346Z,17.51
2016-01-26T10:18:38.333Z,17.49
2016-01-26T10:19:38.386Z,17.49
2016-01-26T10:20:38.435Z,17.49
2016-01-26T10:21:38.469Z,17.51
2016-01-26T10:22:38.549Z,17.52
2016-01-26T10:23:38.616Z,17.48
2016-01-26T10:24:38.653Z,17.46
2016-01-26T10:25:38.999Z,17.48
2016-01-26T10:26:38.771Z,17.52
2016-01-26T10:27:38.821Z,17.42
2016-01-26T10:28:38.872Z,17.49
2016-01-26T10:29:38.936Z,17.52
2016-01-26T10:30:38.970Z,17.52
2016-01-26T10:31:39.035Z,17.49
2016-01-26T10:32:39.087Z,17.51
2016-01-26T10:33:39.136Z,17.51
2016-01-26T10:34:39.216Z,17.45
2016-01-26T10:35:39.250Z,17.49
2016-01-26T10:36:39.300Z,17.48
2016-01-26T10:37:39.398Z,17.56
2016-01-26T10:38:39.432Z,17.48
2016-01-26T10:39:39.467Z,17.48
2016-01-26T10:40:39.536Z,17.63
2016-01-26T10:41:39.601Z,17.59
2016-01-26T10:42:39.651Z,17.52
2016-01-26T10:43:39.701Z,17.57
2016-01-26T10:44:39.736Z,17.63
2016-01-26T10:45:39.816Z,17.48
2016-01-26T10:46:39.866Z,17.48
2016-01-26T10:47:39.916Z,17.6
2016-01-26T10:48:39.981Z,17.57
2016-01-26T10:49:40.051Z,17.59
2016-01-26T10:50:40.068Z,17.45
2016-01-26T10:51:40.136Z,17.59
2016-01-26T10:52:40.217Z,17.46
2016-01-26T10:53:40.228Z,17.65
2016-01-26T10:54:40.293Z,17.51
2016-01-26T10:55:40.374Z,17.59
2016-01-26T10:56:40.410Z,17.64
2016-01-26T10:57:40.459Z,17.59
2016-01-26T10:58:40.524Z,17.65
2016-01-26T10:59:40.594Z,17.59
2016-01-26T11:00:40.644Z,17.56
2016-01-26T11:01:40.682Z,17.56
2016-01-26T11:02:40.748Z,17.65
2016-01-26T11:03:40.782Z,17.63
2016-01-26T11:04:40.850Z,17.45
2016-01-26T11:05:40.914Z,17.63
2016-01-26T11:06:40.963Z,17.48
2016-01-26T11:07:41.014Z,17.48
2016-01-26T11:08:41.079Z,17.6
2016-01-26T11:09:41.129Z,17.59
2016-01-26T11:10:41.194Z,17.63
2016-01-26T11:11:41.229Z,17.63
2016-01-26T11:12:41.293Z,17.45
2016-01-26T11:13:41.359Z,17.44
2016-01-26T11:14:41.393Z,17.56
2016-01-26T11:15:41.459Z,17.59
2016-01-26T11:16:41.508Z,17.64
2016-01-26T11:17:41.558Z,17.52
2016-01-26T11:18:41.640Z,17.48
2016-01-26T11:19:41.689Z,17.63
2016-01-26T11:20:41.724Z,17.63
2016-01-26T11:21:41.805Z,17.56
2016-01-26T11:22:41.838Z,17.46
2016-01-26T11:23:41.893Z,17.6
2016-01-26T11:24:41.957Z,17.46
2016-01-26T11:25:42.025Z,17.6
2016-01-26T11:26:42.058Z,17.54
2016-01-26T11:27:42.123Z,17.44
2016-01-26T11:28:42.173Z,17.65
2016-01-26T11:29:42.223Z,17.6
2016-01-26T11:30:42.290Z,17.6
2016-01-26T11:31:42.354Z,17.64
2016-01-26T11:32:42.404Z,17.63
2016-01-26T11:33:42.454Z,17.57
2016-01-26T11:34:42.489Z,17.57
2016-01-26T11:35:42.586Z,17.48
2016-01-26T11:36:42.605Z,17.6
2016-01-26T11:37:42.675Z,17.48
2016-01-26T11:38:42.724Z,17.63
2016-01-26T11:39:42.789Z,17.59
2016-01-26T11:40:42.838Z,17.48
2016-01-26T11:41:42.905Z,17.56
2016-01-26T11:42:42.970Z,17.63
2016-01-26T11:43:43.003Z,17.63
2016-01-26T11:44:43.072Z,17.57
2016-01-26T11:45:43.121Z,17.6
2016-01-26T11:46:43.187Z,17.63
2016-01-26T11:47:43.220Z,17.57
2016-01-26T11:48:43.270Z,17.49
2016-01-26T11:49:43.353Z,17.45
2016-01-26T11:50:43.402Z,17.6
2016-01-26T11:51:43.439Z,17.48
2016-01-26T11:52:43.504Z,17.57
2016-01-26T11:53:43.557Z,17.52
2016-01-26T11:54:43.606Z,17.6
2016-01-26T11:55:43.655Z,17.59
2016-01-26T11:56:43.721Z,17.51
2016-01-26T11:57:43.771Z,17.57
2016-01-26T11:58:43.810Z,17.63
2016-01-26T11:59:43.874Z,17.65
2016-01-26T12:00:43.940Z,17.64
2016-01-26T12:01:44.021Z,17.57
2016-01-26T12:02:44.041Z,17.63
2016-01-26T12:03:44.101Z,17.6
2016-01-26T12:04:44.167Z,17.49
2016-01-26T12:05:44.218Z,17.6
2016-01-26T12:06:44.266Z,17.45
2016-01-26T12:07:44.332Z,17.6
2016-01-26T12:08:44.366Z,17.48
2016-01-26T12:09:44.432Z,17.51
2016-01-26T12:10:44.496Z,17.44
2016-01-26T12:11:44.561Z,17.51
2016-01-26T12:12:44.611Z,17.54
2016-01-26T12:13:44.661Z,17.48
2016-01-26T12:14:44.699Z,17.46
2016-01-26T12:15:44.763Z,17.6
2016-01-26T12:16:44.813Z,17.64
2016-01-26T12:17:44.864Z,17.6
2016-01-26T12:18:44.944Z,17.46
2016-01-26T12:19:44.994Z,17.63
2016-01-26T12:20:45.028Z,17.56
2016-01-26T12:21:45.125Z,17.51
2016-01-26T12:22:45.159Z,17.52
2016-01-26T12:23:45.209Z,17.57
2016-01-26T12:24:45.290Z,17.6
2016-01-26T12:25:45.324Z,17.59
2016-01-26T12:26:45.374Z,17.63
2016-01-26T12:27:45.423Z,17.54
2016-01-26T12:28:45.473Z,17.52
2016-01-26T12:29:45.557Z,17.51
2016-01-26T12:30:45.591Z,17.63
2016-01-26T12:31:45.640Z,17.6
2016-01-26T12:32:45.706Z,17.56
2016-01-26T12:33:45.771Z,17.59
2016-01-26T12:34:45.821Z,17.64
2016-01-26T12:35:45.886Z,17.6
2016-01-26T12:36:45.936Z,17.57
2016-01-26T12:37:45.971Z,17.63
2016-01-26T12:38:46.020Z,17.48
2016-01-26T12:39:46.133Z,17.6
2016-01-26T12:40:46.167Z,17.59
2016-01-26T12:41:46.186Z,17.59
2016-01-26T12:42:46.255Z,17.63
2016-01-26T12:43:46.325Z,17.49
2016-01-26T12:44:46.360Z,17.57
2016-01-26T12:45:46.425Z,17.42
2016-01-26T12:46:46.475Z,17.48
2016-01-26T12:47:46.525Z,17.57
2016-01-26T12:48:46.607Z,17.49
2016-01-26T12:49:46.656Z,17.52
2016-01-26T12:50:46.675Z,17.59
2016-01-26T12:51:46.756Z,17.59
2016-01-26T12:52:46.783Z,17.6
2016-01-26T12:53:46.863Z,17.45
2016-01-26T12:54:46.929Z,17.52
2016-01-26T12:55:46.980Z,17.59